Avon, Connecticut
Current Conditions -  °F | °C
As of 11:53 PM on Sunday 23 Nov 2014 (Local Time) from KHFD Reporting Station
Clear Clear  
Wind Chill: 39°   Ceiling: Unl
Heat Index: 39°   Visibility: 10mi
Dew Point: 33°   Wind: 3mph
Humidity: 79%   Direction: NA
Pressure: 30.05"   Gusts: NA
Location:  41.81°N, 72.83°W
Report Text: KHFD 240453Z AUTO VRB03KT 10SM CLR 04/01 A3005 RMK AO2 SLP177 T00390006 401440039
Loading
Personal Weather Stations






























Interactive Weather Map New forecast layout! Learn more

10-Day Weather Forecast

Advertisements
Track Severe Weather on mobile